Time;durP1;ratioP1;P1;durP2;ratioP2;P2;SDS_P1;SDS_P2;PMS_P1;PMS_P2;Temp;Humidity;BMP_temperature;BMP_pressure;BME280_temperature;BME280_humidity;BME280_pressure;Samples;Min_cycle;Max_cycle;Signal;HPM_P1;HPM_P2
2023/12/18 00:01:35;;;;;;;66.50;38.50;;;;;;;2.02;100.00;102360.20;1453848;89;22069;-80
2023/12/18 00:04:03;;;;;;;72.13;39.10;;;;;;;2.01;100.00;102354.12;1452839;89;22039;-78
2023/12/18 00:06:33;;;;;;;65.93;37.30;;;;;;;1.97;100.00;102361.63;1458744;89;23244;-79
2023/12/18 00:08:59;;;;;;;75.90;43.20;;;;;;;1.98;100.00;102363.78;1456369;89;22406;-77
2023/12/18 00:11:25;;;;;;;80.20;43.10;;;;;;;1.95;100.00;102358.66;1453923;89;22180;-76
2023/12/18 00:13:53;;;;;;;89.50;41.57;;;;;;;1.92;100.00;102368.73;1457653;89;22151;-77
2023/12/18 00:16:19;;;;;;;65.60;39.23;;;;;;;1.90;100.00;102365.76;1454902;89;22264;-78
2023/12/18 00:18:45;;;;;;;64.77;39.50;;;;;;;1.83;100.00;102350.73;1456728;89;22083;-79
2023/12/18 00:21:11;;;;;;;71.93;40.37;;;;;;;1.83;100.00;102350.73;1454862;89;22202;-80
2023/12/18 00:23:37;;;;;;;72.70;40.63;;;;;;;1.88;100.00;102343.62;1453174;89;22161;-80
2023/12/18 00:26:03;;;;;;;68.43;38.80;;;;;;;1.93;100.00;102348.72;1457707;89;22432;-79
2023/12/18 00:28:29;;;;;;;71.60;39.37;;;;;;;1.96;100.00;102345.56;1441849;89;22609;-79
2023/12/18 00:30:56;;;;;;;77.27;41.63;;;;;;;1.99;100.00;102352.45;1454169;89;22128;-80
2023/12/18 00:33:22;;;;;;;75.37;41.47;;;;;;;2.02;100.00;102352.36;1451346;89;21447;-80
2023/12/18 00:35:49;;;;;;;71.37;39.60;;;;;;;2.04;100.00;102350.54;1454688;89;22179;-80
2023/12/18 00:38:15;;;;;;;80.00;43.47;;;;;;;2.01;100.00;102359.35;1457098;89;22206;-79
2023/12/18 00:40:41;;;;;;;69.80;41.67;;;;;;;2.00;100.00;102359.37;1453203;89;22208;-79
2023/12/18 00:43:08;;;;;;;73.30;40.93;;;;;;;1.94;100.00;102348.66;1456841;89;23201;-78
2023/12/18 00:45:34;;;;;;;80.40;41.67;;;;;;;1.94;100.00;102348.66;1456930;89;22165;-78
2023/12/18 00:48:01;;;;;;;78.23;41.47;;;;;;;1.96;100.00;102356.01;1455861;89;22227;-79
2023/12/18 00:50:27;;;;;;;69.00;38.87;;;;;;;1.93;100.00;102350.03;1450997;89;22210;-79
2023/12/18 00:52:53;;;;;;;69.40;39.50;;;;;;;1.86;100.00;102349.79;1455765;89;22149;-80
2023/12/18 00:55:19;;;;;;;80.70;42.17;;;;;;;1.89;100.00;102356.22;1456322;89;22113;-80
2023/12/18 00:57:45;;;;;;;75.60;41.07;;;;;;;1.86;100.00;102336.27;1453617;89;22087;-80
2023/12/18 01:00:12;;;;;;;77.70;39.73;;;;;;;1.86;100.00;102335.42;1457397;89;22076;-78
2023/12/18 01:02:39;;;;;;;77.60;41.33;;;;;;;1.82;100.00;102359.92;1457313;89;22554;-80
2023/12/18 01:05:06;;;;;;;78.40;40.03;;;;;;;1.82;100.00;102359.92;1453560;89;22017;-81
2023/12/18 01:07:32;;;;;;;82.37;40.87;;;;;;;1.73;100.00;102359.74;1456655;89;21784;-79
2023/12/18 01:09:58;;;;;;;71.97;39.93;;;;;;;1.70;100.00;102356.77;1456094;89;22323;-79
2023/12/18 01:12:26;;;;;;;87.50;46.60;;;;;;;1.74;100.00;102364.91;1442496;89;22136;-78
2023/12/18 01:14:52;;;;;;;67.63;38.40;;;;;;;1.71;100.00;102341.95;1454456;89;22169;-80
2023/12/18 01:17:19;;;;;;;89.07;43.13;;;;;;;1.71;100.00;102341.95;1458969;89;23252;-78
2023/12/18 01:19:45;;;;;;;79.50;40.40;;;;;;;1.69;100.00;102341.13;1439122;89;22866;-77
2023/12/18 01:22:11;;;;;;;76.97;40.20;;;;;;;1.69;100.00;102339.38;1455874;89;22223;-81
2023/12/18 01:24:37;;;;;;;84.63;43.83;;;;;;;1.66;100.00;102329.02;1455249;89;22790;-80
2023/12/18 01:27:04;;;;;;;70.70;40.57;;;;;;;1.61;100.00;102324.38;1456069;89;22078;-80
2023/12/18 01:29:30;;;;;;;73.23;41.47;;;;;;;1.64;100.00;102337.78;1457157;89;23045;-77
2023/12/18 01:31:56;;;;;;;72.00;39.20;;;;;;;1.66;100.00;102346.44;1458050;89;22017;-79
2023/12/18 01:34:22;;;;;;;66.20;38.03;;;;;;;1.66;100.00;102346.44;1447373;89;22050;-78
2023/12/18 01:36:48;;;;;;;75.23;41.53;;;;;;;1.67;100.00;102322.92;1459518;89;21853;-79
2023/12/18 01:39:14;;;;;;;68.67;39.77;;;;;;;1.74;100.00;102315.30;1458962;89;22345;-78
2023/12/18 01:41:41;;;;;;;70.90;39.73;;;;;;;1.78;100.00;102309.11;1452991;89;22628;-78
2023/12/18 01:44:07;;;;;;;73.33;40.37;;;;;;;1.84;100.00;102312.41;1455722;89;22083;-77
2023/12/18 01:46:35;;;;;;;71.00;37.57;;;;;;;1.89;100.00;102313.14;1455734;89;22176;-80
2023/12/18 01:49:02;;;;;;;69.50;41.20;;;;;;;1.89;100.00;102319.66;1453819;89;22009;-80
2023/12/18 01:51:30;;;;;;;66.33;38.67;;;;;;;1.89;100.00;102319.66;1456550;89;22060;-79
2023/12/18 01:53:58;;;;;;;69.00;37.33;;;;;;;1.85;100.00;102318.91;1382307;89;21956;-80
2023/12/18 01:56:30;;;;;;;71.63;38.27;;;;;;;1.83;100.00;102331.14;1523516;89;21945;-78
2023/12/18 01:58:59;;;;;;;72.97;41.30;;;;;;;1.70;100.00;102290.20;1452001;89;22166;-79
2023/12/18 02:01:28;;;;;;;71.33;38.03;;;;;;;1.70;100.00;102290.20;1454610;89;22419;-78
2023/12/18 02:03:56;;;;;;;69.83;38.23;;;;;;;1.65;100.00;102294.69;1455105;89;23056;-79
2023/12/18 02:06:23;;;;;;;60.37;35.43;;;;;;;1.65;100.00;102309.05;1458106;89;22212;-79
2023/12/18 02:08:50;;;;;;;65.90;37.77;;;;;;;1.66;100.00;102315.12;1452520;89;22482;-78
2023/12/18 02:11:18;;;;;;;66.57;38.13;;;;;;;1.65;100.00;102305.59;1464171;89;23645;-78
2023/12/18 02:13:44;;;;;;;61.50;36.87;;;;;;;1.65;100.00;102276.42;1458781;89;22140;-79
2023/12/18 02:16:11;;;;;;;59.07;35.13;;;;;;;1.65;100.00;102275.11;1454785;89;22092;-79
2023/12/18 02:18:46;;;;;;;61.57;35.47;;;;;;;1.61;100.00;102267.41;1458673;89;23611;-79
2023/12/18 02:21:21;;;;;;;59.63;35.77;;;;;;;1.61;100.00;102328.28;1454922;89;22828;-78
2023/12/18 02:23:54;;;;;;;66.60;37.87;;;;;;;1.61;100.00;102300.87;1458972;89;22232;-78
2023/12/18 02:26:19;;;;;;;73.53;40.50;;;;;;;1.62;100.00;102277.81;1448027;89;22222;-79
2023/12/18 02:28:46;;;;;;;64.93;34.60;;;;;;;1.62;100.00;102277.81;1460713;89;22902;-79
2023/12/18 02:31:18;;;;;;;63.83;37.90;;;;;;;1.64;100.00;102279.94;1459464;89;21953;-78
2023/12/18 02:36:12;;;;;;;67.07;37.47;;;;;;;1.66;100.00;102275.97;1494019;85;28113;-81
2023/12/18 02:38:38;;;;;;;74.43;37.27;;;;;;;1.66;100.00;102275.97;1478005;87;22137;-81
2023/12/18 02:41:05;;;;;;;58.30;34.40;;;;;;;1.62;100.00;102258.24;1481512;87;22005;-79
2023/12/18 02:43:31;;;;;;;62.70;34.97;;;;;;;1.57;100.00;102261.42;1479708;87;22317;-79
2023/12/18 02:45:57;;;;;;;59.93;34.33;;;;;;;1.57;100.00;102261.42;1474086;87;22592;-80
2023/12/18 02:48:24;;;;;;;63.20;33.10;;;;;;;1.46;100.00;102255.66;1479252;87;23140;-80
2023/12/18 02:50:50;;;;;;;64.53;37.40;;;;;;;1.47;100.00;102269.14;1473144;87;23204;-80
2023/12/18 02:53:17;;;;;;;57.93;34.00;;;;;;;1.41;100.00;102253.20;1472558;87;22830;-81
2023/12/18 02:55:44;;;;;;;59.63;34.20;;;;;;;1.35;100.00;102238.58;1471057;86;22202;-81
2023/12/18 02:58:10;;;;;;;51.63;32.03;;;;;;;1.35;100.00;102238.58;1479308;87;22629;-80
2023/12/18 03:00:36;;;;;;;59.93;33.00;;;;;;;1.37;100.00;102247.66;1451775;89;22347;-78
2023/12/18 03:03:03;;;;;;;57.90;34.67;;;;;;;1.34;100.00;102243.83;1439653;89;22070;-80
2023/12/18 03:05:29;;;;;;;60.73;32.07;;;;;;;1.27;100.00;102237.94;1422164;91;22118;-79
2023/12/18 03:07:55;;;;;;;52.73;31.43;;;;;;;1.27;100.00;102243.16;1444080;89;21927;-79
2023/12/18 03:10:22;;;;;;;59.63;33.37;;;;;;;1.27;100.00;102248.38;1438575;89;22109;-79
2023/12/18 03:12:48;;;;;;;58.23;35.50;;;;;;;1.27;100.00;102248.38;1444808;89;22969;-77
2023/12/18 03:15:15;;;;;;;57.20;33.87;;;;;;;1.26;100.00;102262.30;1447503;89;21955;-79
2023/12/18 03:17:41;;;;;;;58.57;33.47;;;;;;;1.26;100.00;102262.30;1420719;90;21983;-81
2023/12/18 03:20:08;;;;;;;49.87;31.17;;;;;;;1.27;100.00;102269.24;1418348;90;22057;-78
2023/12/18 03:22:34;;;;;;;54.53;33.33;;;;;;;1.31;100.00;102262.18;1441119;90;22296;-80
2023/12/18 03:25:00;;;;;;;51.93;31.33;;;;;;;1.39;100.00;102264.13;1438189;89;22140;-79
2023/12/18 03:27:26;;;;;;;56.87;30.37;;;;;;;1.39;100.00;102264.13;1429780;91;22152;-79
2023/12/18 03:29:52;;;;;;;61.83;33.90;;;;;;;1.39;100.00;102259.36;1449199;89;21874;-80
2023/12/18 03:32:18;;;;;;;62.90;33.50;;;;;;;1.42;100.00;102251.45;1426846;90;23060;-80
2023/12/18 03:34:45;;;;;;;60.53;32.97;;;;;;;1.43;100.00;102253.14;1442412;90;22296;-81
2023/12/18 03:37:11;;;;;;;55.67;32.47;;;;;;;1.40;100.00;102257.15;1467918;87;22070;-79
2023/12/18 03:39:37;;;;;;;55.23;34.27;;;;;;;1.42;100.00;102264.49;1474461;87;22226;-81
2023/12/18 03:42:04;;;;;;;51.73;31.63;;;;;;;1.37;100.00;102252.02;1471281;87;22202;-80
2023/12/18 03:44:30;;;;;;;57.33;30.57;;;;;;;1.38;100.00;102257.63;1466639;87;22191;-81
2023/12/18 03:46:57;;;;;;;53.23;32.43;;;;;;;1.48;100.00;102266.92;1445173;88;22203;-79
2023/12/18 03:49:23;;;;;;;55.07;31.77;;;;;;;1.48;100.00;102266.92;1441026;88;22183;-80
2023/12/18 03:51:50;;;;;;;52.60;31.23;;;;;;;1.50;100.00;102267.73;1443500;88;21966;-81
2023/12/18 03:54:16;;;;;;;50.40;30.07;;;;;;;1.52;100.00;102271.14;1465032;88;22218;-80
2023/12/18 03:56:42;;;;;;;52.33;30.37;;;;;;;1.57;100.00;102264.04;1462877;87;24145;-78
2023/12/18 03:59:08;;;;;;;54.17;31.30;;;;;;;1.57;100.00;102264.04;1468083;87;22835;-79
2023/12/18 04:01:36;;;;;;;51.93;31.87;;;;;;;1.56;100.00;102258.42;1475130;87;22218;-79
2023/12/18 04:04:03;;;;;;;51.83;30.30;;;;;;;1.56;100.00;102258.42;1435388;89;23325;-80
2023/12/18 04:06:30;;;;;;;51.97;31.07;;;;;;;1.62;100.00;102255.62;1546028;87;22004;-80
2023/12/18 04:08:56;;;;;;;50.20;31.20;;;;;;;1.62;100.00;102258.24;1390668;88;22042;-79
2023/12/18 04:11:22;;;;;;;55.50;32.23;;;;;;;1.62;100.00;102258.24;1394888;89;21815;-79
2023/12/18 04:13:50;;;;;;;53.33;32.83;;;;;;;1.63;100.00;102255.17;1396987;88;22077;-78
2023/12/18 04:16:16;;;;;;;50.37;31.87;;;;;;;1.58;100.00;102239.64;1548735;88;22071;-80
2023/12/18 04:18:45;;;;;;;50.20;29.30;;;;;;;1.58;100.00;102239.64;1399433;88;22220;-81
2023/12/18 04:21:12;;;;;;;51.37;31.93;;;;;;;1.56;100.00;102239.70;1390638;87;22048;-80
2023/12/18 04:23:38;;;;;;;56.77;32.03;;;;;;;1.59;100.00;102240.06;1395785;88;22046;-79
2023/12/18 04:26:04;;;;;;;44.43;27.53;;;;;;;1.54;100.00;102235.42;1394967;88;22586;-80
2023/12/18 04:28:30;;;;;;;54.53;31.93;;;;;;;1.56;100.00;102247.98;1392923;88;21974;-80
2023/12/18 04:30:56;;;;;;;56.13;33.13;;;;;;;1.54;100.00;102246.71;1396047;88;22181;-80
2023/12/18 04:33:22;;;;;;;58.03;32.53;;;;;;;1.52;100.00;102241.98;1377472;89;22833;-80
2023/12/18 04:35:49;;;;;;;56.07;30.73;;;;;;;1.49;100.00;102240.77;1481424;88;21948;-79
2023/12/18 04:38:15;;;;;;;55.30;32.20;;;;;;;1.42;100.00;102238.40;1532218;88;21859;-82
2023/12/18 04:40:41;;;;;;;55.67;33.87;;;;;;;1.42;100.00;102238.40;1393611;88;21827;-81
2023/12/18 04:43:07;;;;;;;62.83;35.50;;;;;;;1.37;100.00;102243.73;1390004;88;21842;-80
2023/12/18 04:45:33;;;;;;;52.40;31.93;;;;;;;1.32;100.00;102241.28;1401360;88;21959;-80
2023/12/18 04:47:59;;;;;;;44.10;29.63;;;;;;;1.32;100.00;102241.28;1392762;88;23027;-79
2023/12/18 04:50:25;;;;;;;54.80;31.93;;;;;;;1.41;100.00;102253.63;1395753;88;22025;-81
2023/12/18 04:52:51;;;;;;;51.97;30.63;;;;;;;1.44;100.00;102247.02;1395050;88;22165;-80
2023/12/18 04:55:17;;;;;;;50.17;30.93;;;;;;;1.48;100.00;102243.44;1399595;88;21845;-79
2023/12/18 04:57:44;;;;;;;57.27;32.90;;;;;;;1.48;100.00;102243.44;1553900;88;23162;-80
2023/12/18 05:00:11;;;;;;;54.83;30.97;;;;;;;1.51;100.00;102246.80;1393621;88;21884;-78
2023/12/18 05:02:38;;;;;;;47.83;28.93;;;;;;;1.50;100.00;102243.80;1425888;88;22218;-78
2023/12/18 05:05:04;;;;;;;49.50;28.97;;;;;;;1.52;100.00;102245.05;1466672;88;23806;-76
2023/12/18 05:07:31;;;;;;;54.27;30.87;;;;;;;1.48;100.00;102246.05;1459035;88;23694;-75
2023/12/18 05:09:57;;;;;;;53.90;31.13;;;;;;;1.45;100.00;102248.75;1470736;88;22078;-77
2023/12/18 05:12:23;;;;;;;54.43;30.13;;;;;;;1.43;100.00;102244.02;1463326;87;22209;-77
2023/12/18 05:14:49;;;;;;;54.60;31.10;;;;;;;1.43;100.00;102244.02;1459480;88;21955;-78
2023/12/18 05:17:15;;;;;;;47.17;28.80;;;;;;;1.39;100.00;102241.09;1458035;88;21793;-78
2023/12/18 05:19:41;;;;;;;54.27;31.90;;;;;;;1.39;100.00;102241.09;1469548;88;22142;-76
2023/12/18 05:22:07;;;;;;;61.40;31.87;;;;;;;1.37;100.00;102241.58;1465050;88;22118;-76
2023/12/18 05:24:34;;;;;;;56.40;33.27;;;;;;;1.35;100.00;102249.02;1468676;88;21920;-77
2023/12/18 05:27:00;;;;;;;51.63;30.80;;;;;;;1.35;100.00;102249.44;1472973;88;22444;-77
2023/12/18 05:29:26;;;;;;;49.87;31.00;;;;;;;1.37;100.00;102244.19;1473248;88;22143;-77
2023/12/18 05:31:52;;;;;;;55.97;33.67;;;;;;;1.36;100.00;102235.52;1474981;88;21885;-78
2023/12/18 05:34:18;;;;;;;57.13;31.67;;;;;;;1.38;100.00;102236.77;1475354;88;22514;-77
2023/12/18 05:36:45;;;;;;;54.60;33.13;;;;;;;1.38;100.00;102236.77;1472728;88;22315;-77
2023/12/18 05:39:11;;;;;;;59.43;35.77;;;;;;;1.38;100.00;102232.84;1475890;88;22138;-75
2023/12/18 05:41:37;;;;;;;56.23;33.53;;;;;;;1.33;100.00;102230.39;1476247;88;21892;-78
2023/12/18 05:44:03;;;;;;;51.63;32.33;;;;;;;1.30;100.00;102222.20;1486712;88;22130;-77
2023/12/18 05:46:30;;;;;;;55.93;31.93;;;;;;;1.26;100.00;102228.38;1479962;88;21973;-77
2023/12/18 05:48:56;;;;;;;49.60;29.83;;;;;;;1.26;100.00;102228.38;1455527;88;23490;-78
2023/12/18 05:51:22;;;;;;;47.43;29.40;;;;;;;1.24;100.00;102221.53;1479574;88;22005;-78
2023/12/18 05:53:49;;;;;;;48.40;29.23;;;;;;;1.24;100.00;102222.38;1475841;88;21906;-77
2023/12/18 05:56:16;;;;;;;51.50;30.50;;;;;;;1.20;100.00;102233.78;1485662;88;21890;-78
2023/12/18 05:58:43;;;;;;;50.33;30.80;;;;;;;1.19;100.00;102234.69;1474241;88;22083;-78
2023/12/18 06:01:09;;;;;;;59.00;31.80;;;;;;;1.13;100.00;102240.08;1476065;88;21910;-78
2023/12/18 06:03:35;;;;;;;61.37;33.47;;;;;;;1.05;100.00;102230.31;1479046;88;21919;-78
2023/12/18 06:06:01;;;;;;;56.10;30.30;;;;;;;1.05;100.00;102230.31;1474699;88;21905;-78
2023/12/18 06:08:27;;;;;;;54.67;31.23;;;;;;;1.02;100.00;102232.55;1474765;88;21918;-78
2023/12/18 06:10:53;;;;;;;50.60;30.90;;;;;;;1.02;100.00;102232.55;1458003;88;22090;-78
2023/12/18 06:13:20;;;;;;;59.07;32.77;;;;;;;0.98;100.00;102241.78;1457631;88;22826;-78
2023/12/18 06:15:46;;;;;;;54.63;33.70;;;;;;;0.98;100.00;102241.78;1476469;88;22108;-78
2023/12/18 06:18:13;;;;;;;56.47;32.27;;;;;;;0.97;100.00;102244.00;1458645;88;21877;-78
2023/12/18 06:20:39;;;;;;;58.13;31.27;;;;;;;0.96;100.00;102239.23;1476117;88;22072;-77
2023/12/18 06:23:05;;;;;;;53.90;31.00;;;;;;;1.00;100.00;102247.82;1478826;88;21788;-77
2023/12/18 06:25:31;;;;;;;52.53;30.43;;;;;;;1.00;100.00;102247.82;1481153;88;21794;-79
2023/12/18 06:27:57;;;;;;;58.30;34.67;;;;;;;0.96;100.00;102247.52;1476994;88;21821;-79
2023/12/18 06:30:23;;;;;;;53.13;32.93;;;;;;;0.91;100.00;102238.50;1478661;88;22447;-78
2023/12/18 06:32:49;;;;;;;58.60;33.07;;;;;;;0.91;100.00;102238.50;1474286;88;22166;-77
2023/12/18 06:35:16;;;;;;;53.40;32.43;;;;;;;0.96;100.00;102249.67;1479100;88;21974;-77
2023/12/18 06:37:43;;;;;;;55.43;32.67;;;;;;;0.97;100.00;102253.97;1481030;88;21457;-77
2023/12/18 06:40:10;;;;;;;57.03;33.67;;;;;;;0.99;100.00;102258.70;1481635;88;21827;-78
2023/12/18 06:42:36;;;;;;;63.83;35.73;;;;;;;0.98;100.00;102256.13;1482637;88;21907;-79
2023/12/18 06:45:03;;;;;;;61.10;33.57;;;;;;;0.98;100.00;102256.13;1481884;88;21912;-79
2023/12/18 06:47:29;;;;;;;61.60;33.67;;;;;;;0.95;100.00;102260.13;1482605;88;23013;-78
2023/12/18 06:49:55;;;;;;;63.37;35.30;;;;;;;0.96;100.00;102263.16;1480587;88;22061;-78
2023/12/18 06:52:23;;;;;;;59.93;35.43;;;;;;;0.96;100.00;102270.98;1478882;88;21862;-78
2023/12/18 06:54:49;;;;;;;64.93;36.27;;;;;;;0.84;100.00;102256.06;1479690;88;23549;-77
2023/12/18 06:57:16;;;;;;;59.07;34.50;;;;;;;0.84;100.00;102256.06;1452893;88;22779;-77
2023/12/18 06:59:42;;;;;;;55.43;32.43;;;;;;;0.84;100.00;102265.19;1481821;88;21850;-78
2023/12/18 07:02:08;;;;;;;53.07;31.97;;;;;;;0.82;100.00;102257.84;1481181;88;22298;-77
2023/12/18 07:04:34;;;;;;;65.40;34.27;;;;;;;0.82;100.00;102253.94;1481653;88;21805;-76
2023/12/18 07:07:00;;;;;;;59.90;34.13;;;;;;;0.83;100.00;102256.09;1482553;88;21906;-77
2023/12/18 07:09:28;;;;;;;61.87;35.13;;;;;;;0.79;100.00;102252.72;1478848;88;21859;-78
2023/12/18 07:11:55;;;;;;;61.50;34.53;;;;;;;0.85;100.00;102261.67;1482538;88;21709;-78
2023/12/18 07:14:22;;;;;;;58.60;32.40;;;;;;;0.84;100.00;102267.80;1455526;88;23314;-77
2023/12/18 07:16:49;;;;;;;64.37;35.17;;;;;;;0.88;100.00;102264.66;1480537;88;21740;-78
2023/12/18 07:19:17;;;;;;;54.30;32.03;;;;;;;0.89;100.00;102265.93;1482272;88;21917;-78
2023/12/18 07:21:44;;;;;;;54.80;31.77;;;;;;;0.88;100.00;102272.02;1473157;88;21811;-77
2023/12/18 07:24:11;;;;;;;58.57;32.97;;;;;;;0.90;100.00;102266.33;1480498;88;22996;-78
2023/12/18 07:26:38;;;;;;;60.70;33.83;;;;;;;0.88;100.00;102261.59;1484488;88;21773;-79
2023/12/18 07:29:05;;;;;;;63.27;35.70;;;;;;;0.90;100.00;102269.39;1481052;88;22948;-78
2023/12/18 07:31:32;;;;;;;64.57;33.37;;;;;;;0.88;100.00;102273.77;1479208;88;22075;-78
2023/12/18 07:33:59;;;;;;;62.23;35.57;;;;;;;0.82;100.00;102260.91;1456079;88;23354;-77
2023/12/18 07:36:27;;;;;;;67.10;35.37;;;;;;;0.85;100.00;102259.52;1478948;88;22430;-79
2023/12/18 07:38:54;;;;;;;67.13;34.90;;;;;;;0.85;100.00;102259.52;1471504;88;22143;-78
2023/12/18 07:41:22;;;;;;;58.83;34.73;;;;;;;0.81;100.00;102259.20;1476522;88;21973;-77
2023/12/18 07:43:49;;;;;;;57.37;33.87;;;;;;;0.83;100.00;102256.09;1471414;88;21922;-78
2023/12/18 07:46:18;;;;;;;61.47;33.83;;;;;;;0.84;100.00;102258.67;1476645;88;22668;-78
2023/12/18 07:48:49;;;;;;;62.20;34.17;;;;;;;0.97;100.00;102262.25;1383187;89;21725;-78
2023/12/18 07:51:16;;;;;;;66.00;36.40;;;;;;;0.97;100.00;102262.25;1400013;88;21938;-77
2023/12/18 07:53:44;;;;;;;57.57;30.90;;;;;;;1.04;100.00;102263.36;1395402;88;22183;-78
2023/12/18 07:56:11;;;;;;;60.60;33.53;;;;;;;1.16;100.00;102263.47;1398135;88;22107;-78
2023/12/18 07:58:40;;;;;;;55.00;32.73;;;;;;;1.19;100.00;102256.01;1398346;88;22032;-77
2023/12/18 08:01:07;;;;;;;60.53;33.07;;;;;;;1.19;100.00;102256.01;1396577;88;21818;-78
2023/12/18 08:03:35;;;;;;;60.53;34.10;;;;;;;1.22;100.00;102267.20;1404662;88;22064;-79
2023/12/18 08:06:02;;;;;;;54.83;31.03;;;;;;;1.18;100.00;102250.36;1398358;88;22699;-78
2023/12/18 08:08:29;;;;;;;56.97;32.63;;;;;;;1.21;100.00;102257.68;1398492;88;22056;-76
2023/12/18 08:10:56;;;;;;;55.27;31.00;;;;;;;1.21;100.00;102257.68;1398990;88;21999;-78
2023/12/18 08:13:23;;;;;;;52.97;29.43;;;;;;;1.19;100.00;102249.48;1398935;88;22085;-78
2023/12/18 08:15:51;;;;;;;49.83;30.13;;;;;;;1.18;100.00;102248.64;1404877;88;23047;-77
2023/12/18 08:18:18;;;;;;;58.93;33.80;;;;;;;1.20;100.00;102246.82;1398247;88;21878;-78
2023/12/18 08:20:46;;;;;;;54.27;32.60;;;;;;;1.18;100.00;102246.03;1398391;88;22025;-78
2023/12/18 08:23:13;;;;;;;52.67;32.73;;;;;;;1.14;100.00;102254.82;1398024;88;21862;-77
2023/12/18 08:25:40;;;;;;;63.43;34.27;;;;;;;1.12;100.00;102248.78;1399012;88;22001;-78
2023/12/18 08:28:07;;;;;;;49.53;30.17;;;;;;;1.12;100.00;102246.17;1398816;88;21936;-77
2023/12/18 08:30:35;;;;;;;60.20;32.60;;;;;;;1.12;100.00;102246.17;1404336;88;22048;-77
2023/12/18 08:33:02;;;;;;;52.87;32.77;;;;;;;1.24;100.00;102260.20;1398196;88;22034;-77
2023/12/18 08:35:30;;;;;;;57.30;33.27;;;;;;;1.24;100.00;102260.20;1398312;88;21987;-76
2023/12/18 08:37:57;;;;;;;65.40;38.03;;;;;;;1.22;100.00;102249.40;1404009;88;22212;-77
2023/12/18 08:40:25;;;;;;;60.90;33.53;;;;;;;1.28;100.00;102259.66;1398684;88;21812;-76
2023/12/18 08:42:52;;;;;;;53.50;32.67;;;;;;;1.26;100.00;102247.95;1398594;88;23063;-78
2023/12/18 08:47:59;;;;;;;58.30;34.07;;;;;;;1.39;100.00;102249.77;1494902;85;28216;-76
2023/12/18 08:50:26;;;;;;;56.43;32.77;;;;;;;1.41;100.00;102247.11;1465931;87;23086;-76
2023/12/18 08:52:53;;;;;;;60.43;35.57;;;;;;;1.44;100.00;102246.59;1388695;87;22117;-75
2023/12/18 08:55:19;;;;;;;52.47;33.13;;;;;;;1.45;100.00;102250.05;1389878;88;22086;-76
2023/12/18 08:57:45;;;;;;;64.17;36.43;;;;;;;1.45;100.00;102234.39;1395071;88;23152;-76
2023/12/18 09:00:13;;;;;;;62.53;35.63;;;;;;;1.49;100.00;102241.22;1446643;87;22241;-76
2023/12/18 09:02:39;;;;;;;62.23;34.03;;;;;;;1.47;100.00;102227.38;1390830;89;22049;-76
2023/12/18 09:05:06;;;;;;;63.30;35.57;;;;;;;1.55;100.00;102233.20;1394785;89;21986;-76
2023/12/18 09:07:32;;;;;;;70.77;40.50;;;;;;;1.52;100.00;102231.99;1391589;87;22100;-76
2023/12/18 09:09:59;;;;;;;61.20;34.83;;;;;;;1.52;100.00;102231.99;1395794;89;22187;-76
2023/12/18 09:12:25;;;;;;;78.80;36.33;;;;;;;1.51;100.00;102227.69;1403401;89;22104;-76
2023/12/18 09:14:51;;;;;;;57.33;33.60;;;;;;;1.51;100.00;102227.69;1372637;91;22032;-76
2023/12/18 09:17:17;;;;;;;58.03;33.80;;;;;;;1.53;100.00;102230.66;1447929;87;22192;-76
2023/12/18 09:19:43;;;;;;;62.07;37.87;;;;;;;1.56;100.00;102223.19;1472086;87;23046;-76
2023/12/18 09:22:09;;;;;;;61.97;33.53;;;;;;;1.48;100.00;102217.34;1464860;88;22109;-75
2023/12/18 09:24:36;;;;;;;66.60;39.63;;;;;;;1.50;100.00;102220.77;1471067;87;22063;-76
2023/12/18 09:27:03;;;;;;;64.70;36.60;;;;;;;1.44;100.00;102215.28;1469893;87;22134;-74
2023/12/18 09:29:29;;;;;;;64.73;36.80;;;;;;;1.44;100.00;102215.28;1466638;87;24047;-76
2023/12/18 09:31:56;;;;;;;67.47;38.57;;;;;;;1.37;100.00;102205.06;1481117;87;22025;-75
2023/12/18 09:34:25;;;;;;;76.40;41.47;;;;;;;1.33;100.00;102196.02;1484273;88;22144;-75
2023/12/18 09:36:51;;;;;;;56.37;34.77;;;;;;;1.33;100.00;102196.02;1481163;88;21909;-75
2023/12/18 09:39:17;;;;;;;62.73;39.90;;;;;;;1.42;100.00;102196.66;1481542;88;23025;-77
2023/12/18 09:41:43;;;;;;;61.37;36.37;;;;;;;1.44;100.00;102201.35;1481881;88;22981;-78
2023/12/18 09:44:09;;;;;;;59.73;36.43;;;;;;;1.45;100.00;102197.87;1482864;88;21863;-77
2023/12/18 09:46:35;;;;;;;65.07;36.83;;;;;;;1.42;100.00;102183.61;1476474;88;22281;-77
2023/12/18 09:49:02;;;;;;;64.53;37.50;;;;;;;1.42;100.00;102183.61;1474130;88;22404;-77
2023/12/18 09:51:30;;;;;;;63.90;36.60;;;;;;;1.46;100.00;102187.82;1474752;88;22677;-77
2023/12/18 09:53:57;;;;;;;64.90;38.70;;;;;;;1.46;100.00;102187.82;1458623;88;22149;-77
2023/12/18 09:56:24;;;;;;;66.87;37.70;;;;;;;1.50;100.00;102191.06;1480806;88;22189;-78
2023/12/18 09:58:55;;;;;;;66.13;39.47;;;;;;;1.54;100.00;102191.06;1470579;88;22910;-79
2023/12/18 10:01:22;;;;;;;68.80;41.48;;;;;;;1.54;100.00;102181.47;1466571;88;22277;-78
2023/12/18 10:03:48;;;;;;;84.90;46.47;;;;;;;1.62;100.00;102190.38;1478024;88;21450;-78
2023/12/18 10:06:15;;;;;;;74.93;42.33;;;;;;;1.65;100.00;102184.22;1474909;88;22220;-79
2023/12/18 10:08:41;;;;;;;68.27;42.83;;;;;;;1.67;100.00;102175.44;1470820;88;22317;-79
2023/12/18 10:11:15;;;;;;;66.57;39.23;;;;;;;1.72;100.00;102173.52;1464919;88;22200;-79
2023/12/18 10:13:43;;;;;;;63.30;37.27;;;;;;;1.76;100.00;102172.53;1474184;88;22189;-77
2023/12/18 10:16:11;;;;;;;64.87;40.97;;;;;;;1.84;100.00;102184.47;1471270;88;22322;-78
2023/12/18 10:18:37;;;;;;;56.73;35.73;;;;;;;1.86;100.00;102187.90;1472819;88;23225;-78
2023/12/18 10:21:04;;;;;;;70.83;41.93;;;;;;;1.86;100.00;102187.90;1473174;88;22338;-79
2023/12/18 10:23:35;;;;;;;58.37;37.17;;;;;;;1.89;100.00;102183.88;1468123;88;23744;-79
2023/12/18 10:26:02;;;;;;;61.67;37.10;;;;;;;1.87;100.00;102175.23;1471027;88;23073;-77
2023/12/18 10:28:28;;;;;;;64.27;39.60;;;;;;;1.85;100.00;102171.84;1394379;88;23197;-79
2023/12/18 10:30:56;;;;;;;65.67;40.07;;;;;;;1.82;100.00;102173.25;1398897;88;22086;-79
2023/12/18 10:33:25;;;;;;;71.07;39.77;;;;;;;1.82;100.00;102166.72;1397248;88;22044;-79
2023/12/18 10:35:53;;;;;;;65.70;39.87;;;;;;;1.83;100.00;102173.64;1395278;88;22230;-80
2023/12/18 10:38:24;;;;;;;61.63;37.50;;;;;;;1.83;100.00;102152.30;1396480;88;22241;-76
2023/12/18 10:40:52;;;;;;;;;;;;;;;1.92;100.00;102162.89;1396464;92;22101;-79
2023/12/18 10:43:24;;;;;;;60.13;38.03;;;;;;;1.91;100.00;102150.75;1396464;88;20247;-78
2023/12/18 10:45:54;;;;;;;70.10;46.17;;;;;;;1.90;100.00;102159.47;1395913;88;22106;-78
2023/12/18 10:48:20;;;;;;;67.55;42.30;;;;;;;1.91;100.00;102155.98;1430876;88;22156;-79
2023/12/18 10:50:50;;;;;;;65.93;40.33;;;;;;;1.90;100.00;102143.38;1398861;88;21361;-80
2023/12/18 10:53:17;;;;;;;59.33;37.93;;;;;;;1.89;100.00;102139.50;1394964;88;22059;-79
2023/12/18 10:55:44;;;;;;;67.70;41.77;;;;;;;1.94;100.00;102137.59;1397621;88;22202;-79
2023/12/18 10:58:11;;;;;;;63.60;39.53;;;;;;;1.97;100.00;102127.05;1397503;88;22067;-79
2023/12/18 11:00:39;;;;;;;73.60;43.00;;;;;;;1.98;100.00;102120.45;1397511;88;22020;-79
2023/12/18 11:03:05;;;;;;;67.73;41.67;;;;;;;1.97;100.00;102119.21;1408699;88;22126;-78
2023/12/18 11:05:32;;;;;;;65.20;42.13;;;;;;;1.93;100.00;102119.77;1559135;88;22178;-78
2023/12/18 11:07:58;;;;;;;69.77;40.10;;;;;;;1.91;100.00;102116.34;1555050;88;22126;-78
2023/12/18 11:10:25;;;;;;;69.90;42.30;;;;;;;1.89;100.00;102110.31;1442401;88;22354;-77
2023/12/18 11:13:29;;;;;;;68.33;39.13;;;;;;;1.92;100.00;102102.84;1383847;89;22089;-78